createdAt,value
2022-12-03T00:01:02.647Z,-2.81
2022-12-03T00:03:36.911Z,-2.81
2022-12-03T00:06:07.496Z,-2.81
2022-12-03T00:08:39.261Z,-2.82
2022-12-03T00:11:11.051Z,-2.83
2022-12-03T00:13:42.677Z,-2.83
2022-12-03T00:16:14.360Z,-2.83
2022-12-03T00:18:45.979Z,-2.83
2022-12-03T00:21:17.950Z,-2.82
2022-12-03T00:23:49.477Z,-2.79
2022-12-03T00:26:21.291Z,-2.79
2022-12-03T00:28:54.809Z,-2.80
2022-12-03T00:31:26.754Z,-2.78
2022-12-03T00:33:58.532Z,-2.75
2022-12-03T00:36:30.415Z,-2.74
2022-12-03T00:39:02.109Z,-2.73
2022-12-03T00:41:33.715Z,-2.74
2022-12-03T00:44:05.923Z,-2.76
2022-12-03T00:46:37.631Z,-2.78
2022-12-03T00:49:09.313Z,-2.80
2022-12-03T00:51:41.029Z,-2.81
2022-12-03T00:54:13.021Z,-2.81
2022-12-03T00:56:44.617Z,-2.81
2022-12-03T00:59:16.462Z,-2.82
2022-12-03T01:01:48.236Z,-2.83
2022-12-03T01:04:19.981Z,-2.82
2022-12-03T01:06:51.838Z,-2.82
2022-12-03T01:09:23.664Z,-2.80
2022-12-03T01:11:55.522Z,-2.78
2022-12-03T01:14:27.212Z,-2.77
2022-12-03T01:16:58.773Z,-2.77
2022-12-03T01:19:30.561Z,-2.77
2022-12-03T01:22:02.557Z,-2.77
2022-12-03T01:24:34.330Z,-2.77
2022-12-03T01:27:06.035Z,-2.78
2022-12-03T01:29:37.651Z,-2.79
2022-12-03T01:32:19.710Z,-2.78
2022-12-03T01:34:53.267Z,-2.78
2022-12-03T01:37:26.685Z,-2.77
2022-12-03T01:39:58.455Z,-2.78
2022-12-03T01:42:32.487Z,-2.79
2022-12-03T01:45:02.686Z,-2.78
2022-12-03T01:47:36.706Z,-2.77
2022-12-03T01:50:08.631Z,-2.79
2022-12-03T01:52:41.445Z,-2.79
2022-12-03T01:55:17.514Z,-2.79
2022-12-03T01:57:51.043Z,-2.78
2022-12-03T02:00:27.116Z,-2.77
2022-12-03T02:03:01.016Z,-2.78
2022-12-03T02:05:34.137Z,-2.79
2022-12-03T02:08:32.055Z,-2.79
2022-12-03T02:11:06.659Z,-2.78
2022-12-03T02:13:38.859Z,-2.76
2022-12-03T02:16:10.930Z,-2.75
2022-12-03T02:18:42.994Z,-2.72
2022-12-03T02:21:19.470Z,-2.70
2022-12-03T02:23:59.089Z,-2.67
2022-12-03T02:26:31.117Z,-2.64
2022-12-03T02:29:03.788Z,-2.63
2022-12-03T02:31:35.712Z,-2.62
2022-12-03T02:34:09.529Z,-2.60
2022-12-03T02:36:41.780Z,-2.59
2022-12-03T02:39:13.597Z,-2.57
2022-12-03T02:42:08.840Z,-2.56
2022-12-03T02:44:40.506Z,-2.56
2022-12-03T02:47:12.690Z,-2.56
2022-12-03T02:49:44.627Z,-2.56
2022-12-03T02:52:16.448Z,-2.55
2022-12-03T02:54:48.284Z,-2.54
2022-12-03T02:57:20.075Z,-2.51
2022-12-03T02:59:51.744Z,-2.50
2022-12-03T03:02:23.757Z,-2.49
2022-12-03T03:04:55.599Z,-2.48
2022-12-03T03:07:27.575Z,-2.47
2022-12-03T03:09:59.442Z,-2.45
2022-12-03T03:12:33.646Z,-2.45
2022-12-03T03:15:12.614Z,-2.44
2022-12-03T03:17:45.355Z,-2.43
2022-12-03T03:20:17.536Z,-2.44
2022-12-03T03:22:49.189Z,-2.45
2022-12-03T03:25:22.558Z,-2.45
2022-12-03T03:27:54.227Z,-2.44
2022-12-03T03:30:25.882Z,-2.44
2022-12-03T03:32:57.667Z,-2.42
2022-12-03T03:35:29.405Z,-2.41
2022-12-03T03:38:01.395Z,-2.39
2022-12-03T03:40:33.211Z,-2.38
2022-12-03T03:43:05.123Z,-2.35
2022-12-03T03:45:36.835Z,-2.33
2022-12-03T03:48:08.789Z,-2.33
2022-12-03T03:50:40.582Z,-2.34
2022-12-03T03:53:12.958Z,-2.36
2022-12-03T03:55:44.838Z,-2.38
2022-12-03T03:58:16.798Z,-2.37
2022-12-03T04:00:50.883Z,-2.37
2022-12-03T04:03:22.549Z,-2.37
2022-12-03T04:05:54.399Z,-2.37
2022-12-03T04:08:25.975Z,-2.37
2022-12-03T04:11:15.421Z,-2.39
2022-12-03T04:13:47.218Z,-2.39
2022-12-03T04:16:18.922Z,-2.38
2022-12-03T04:18:50.956Z,-2.38
2022-12-03T04:21:41.722Z,-2.38
2022-12-03T04:24:14.072Z,-2.37
2022-12-03T04:27:03.788Z,-2.36
2022-12-03T04:29:35.560Z,-2.35
2022-12-03T04:32:25.226Z,-2.35
2022-12-03T04:35:14.324Z,-2.35
2022-12-03T04:37:46.195Z,-2.33
2022-12-03T04:40:31.791Z,-2.32
2022-12-03T04:43:03.602Z,-2.31
2022-12-03T04:45:35.432Z,-2.31
2022-12-03T04:48:07.583Z,-2.29
2022-12-03T04:50:39.102Z,-2.30
2022-12-03T04:53:11.122Z,-2.29
2022-12-03T04:55:42.717Z,-2.29
2022-12-03T04:58:14.654Z,-2.28
2022-12-03T05:00:46.549Z,-2.26
2022-12-03T05:03:18.444Z,-2.27
2022-12-03T05:05:50.069Z,-2.27
2022-12-03T05:08:21.986Z,-2.26
2022-12-03T05:10:53.685Z,-2.25
2022-12-03T05:13:25.210Z,-2.26
2022-12-03T05:15:56.910Z,-2.25
2022-12-03T05:18:28.733Z,-2.23
2022-12-03T05:21:00.415Z,-2.21
2022-12-03T05:23:32.104Z,-2.23
2022-12-03T05:26:04.065Z,-2.23
2022-12-03T05:28:35.816Z,-2.23
2022-12-03T05:31:07.693Z,-2.22
2022-12-03T05:33:44.005Z,-2.23
2022-12-03T05:36:16.440Z,-2.23
2022-12-03T05:38:48.049Z,-2.22
2022-12-03T05:41:37.593Z,-2.21
2022-12-03T05:44:09.294Z,-2.18
2022-12-03T05:46:40.922Z,-2.18
2022-12-03T05:49:12.567Z,-2.16
2022-12-03T05:51:44.244Z,-2.15
2022-12-03T05:54:16.066Z,-2.14
2022-12-03T05:56:47.919Z,-2.12
2022-12-03T05:59:19.603Z,-2.12
2022-12-03T06:01:51.155Z,-2.09
2022-12-03T06:04:22.989Z,-2.07
2022-12-03T06:06:54.733Z,-2.06
2022-12-03T06:09:26.638Z,-2.05
2022-12-03T06:11:58.539Z,-2.04
2022-12-03T06:14:32.114Z,-2.04
2022-12-03T06:17:04.909Z,-2.04
2022-12-03T06:19:36.614Z,-2.03
2022-12-03T06:22:08.159Z,-2.03
2022-12-03T06:24:39.934Z,-2.03
2022-12-03T06:27:11.750Z,-2.04
2022-12-03T06:29:43.755Z,-2.04
2022-12-03T06:32:15.658Z,-2.04
2022-12-03T06:34:47.442Z,-2.04
2022-12-03T06:37:19.103Z,-2.03
2022-12-03T06:39:50.812Z,-2.01
2022-12-03T06:42:22.580Z,-1.99
2022-12-03T06:44:54.738Z,-1.99
2022-12-03T06:47:26.560Z,-1.98
2022-12-03T06:49:58.173Z,-1.98
2022-12-03T06:52:29.936Z,-1.98
2022-12-03T06:55:01.574Z,-1.96
2022-12-03T06:57:33.139Z,-1.95
2022-12-03T07:00:05.267Z,-1.94
2022-12-03T07:02:37.064Z,-1.93
2022-12-03T07:05:10.039Z,-1.92
2022-12-03T07:07:41.745Z,-1.91
2022-12-03T07:10:14.958Z,-1.89
2022-12-03T07:12:46.636Z,-1.88
2022-12-03T07:15:18.684Z,-1.87
2022-12-03T07:17:51.216Z,-1.85
2022-12-03T07:20:22.948Z,-1.84
2022-12-03T07:22:54.507Z,-1.83
2022-12-03T07:25:26.239Z,-1.82
2022-12-03T07:27:58.025Z,-1.81
2022-12-03T07:30:29.853Z,-1.79
2022-12-03T07:33:01.395Z,-1.77
2022-12-03T07:35:33.031Z,-1.76
2022-12-03T07:38:04.755Z,-1.75
2022-12-03T07:40:36.936Z,-1.74
2022-12-03T07:43:09.095Z,-1.74
2022-12-03T07:45:40.677Z,-1.74
2022-12-03T07:48:12.733Z,-1.75
2022-12-03T07:50:44.681Z,-1.76
2022-12-03T07:53:16.279Z,-1.76
2022-12-03T07:55:48.124Z,-1.75
2022-12-03T07:58:19.823Z,-1.75
2022-12-03T08:00:51.594Z,-1.75
2022-12-03T08:03:23.221Z,-1.75
2022-12-03T08:05:54.913Z,-1.74
2022-12-03T08:08:26.623Z,-1.73
2022-12-03T08:10:58.342Z,-1.73
2022-12-03T08:13:30.959Z,-1.73
2022-12-03T08:16:10.187Z,-1.72
2022-12-03T08:18:42.059Z,-1.69
2022-12-03T08:21:14.831Z,-1.69
2022-12-03T08:23:46.560Z,-1.67
2022-12-03T08:26:23.401Z,-1.66
2022-12-03T08:28:55.572Z,-1.65
2022-12-03T08:31:33.256Z,-1.63
2022-12-03T08:34:18.890Z,-1.61
2022-12-03T08:36:53.649Z,-1.60
2022-12-03T08:39:33.644Z,-1.57
2022-12-03T08:42:30.691Z,-1.56
2022-12-03T08:45:41.448Z,-1.53
2022-12-03T08:48:32.699Z,-1.52
2022-12-03T08:51:07.726Z,-1.50
2022-12-03T08:53:43.162Z,-1.49
2022-12-03T08:56:23.763Z,-1.47
2022-12-03T08:58:57.312Z,-1.45
2022-12-03T09:01:36.535Z,-1.43
2022-12-03T09:04:23.936Z,-1.42
2022-12-03T09:06:56.360Z,-1.40
2022-12-03T09:09:28.067Z,-1.38
2022-12-03T09:12:02.199Z,-1.35
2022-12-03T09:14:33.902Z,-1.32
2022-12-03T09:17:06.371Z,-1.30
2022-12-03T09:19:44.292Z,-1.26
2022-12-03T09:22:17.641Z,-1.22
2022-12-03T09:24:49.253Z,-1.19
2022-12-03T09:27:22.703Z,-1.17
2022-12-03T09:29:54.630Z,-1.13
2022-12-03T09:32:26.463Z,-1.10
2022-12-03T09:34:58.303Z,-1.07
2022-12-03T09:37:30.175Z,-1.05
2022-12-03T09:40:02.174Z,-1.01
2022-12-03T09:42:33.875Z,-0.98
2022-12-03T09:45:11.016Z,-0.95
2022-12-03T09:47:44.292Z,-0.93
2022-12-03T09:50:19.756Z,-0.91
2022-12-03T09:52:54.896Z,-0.91
2022-12-03T09:55:28.628Z,-0.91
2022-12-03T09:58:00.881Z,-0.88
2022-12-03T10:00:33.112Z,-0.86
2022-12-03T10:03:09.101Z,-0.83
2022-12-03T10:05:47.932Z,-0.81
2022-12-03T10:08:22.792Z,-0.78
2022-12-03T10:10:56.741Z,-0.74
2022-12-03T10:13:31.298Z,-0.70
2022-12-03T10:16:03.756Z,-0.65
2022-12-03T10:18:41.486Z,-0.59
2022-12-03T10:21:20.464Z,-0.52
2022-12-03T10:23:55.378Z,-0.42
2022-12-03T10:26:41.073Z,-0.32
2022-12-03T10:29:17.744Z,-0.21
2022-12-03T10:31:57.177Z,-0.14
2022-12-03T10:34:31.913Z,-0.09
2022-12-03T10:37:18.756Z,-0.09
2022-12-03T10:40:01.490Z,-0.06
2022-12-03T10:42:35.246Z,-0.04
2022-12-03T10:45:21.155Z,-0.04
2022-12-03T10:48:08.182Z,-0.04
2022-12-03T10:50:45.187Z,-0.04
2022-12-03T10:53:17.330Z,-0.05
2022-12-03T10:55:51.264Z,-0.08
2022-12-03T10:58:23.711Z,-0.08
2022-12-03T11:00:56.581Z,-0.09
2022-12-03T11:03:30.529Z,-0.09
2022-12-03T11:06:03.200Z,-0.08
2022-12-03T11:08:36.932Z,-0.07
2022-12-03T11:11:11.658Z,-0.06
2022-12-03T11:13:50.845Z,-0.05
2022-12-03T11:17:08.936Z,-0.03
2022-12-03T11:19:49.899Z,-0.01
2022-12-03T11:22:41.959Z,-0.00
2022-12-03T11:25:57.403Z,0.01
2022-12-03T11:28:54.017Z,0.02
2022-12-03T11:31:40.551Z,0.02
2022-12-03T11:34:44.230Z,0.03
2022-12-03T11:37:31.351Z,0.04
2022-12-03T11:40:21.424Z,0.06
2022-12-03T11:42:53.320Z,0.06
2022-12-03T11:45:32.859Z,0.08
2022-12-03T11:48:10.264Z,0.06
2022-12-03T11:50:44.451Z,0.07
2022-12-03T11:53:18.946Z,0.07
2022-12-03T11:56:06.276Z,0.06
2022-12-03T11:58:39.702Z,0.07
2022-12-03T12:01:11.418Z,0.08
2022-12-03T12:03:47.181Z,0.09
2022-12-03T12:06:20.930Z,0.09
2022-12-03T12:09:04.033Z,0.10
2022-12-03T12:11:37.493Z,0.11
2022-12-03T12:14:09.958Z,0.13
2022-12-03T12:16:46.085Z,0.14
2022-12-03T12:19:38.627Z,0.17
2022-12-03T12:22:18.572Z,0.18
2022-12-03T12:24:53.183Z,0.19
2022-12-03T12:27:30.725Z,0.20
2022-12-03T12:30:05.207Z,0.22
2022-12-03T12:32:42.538Z,0.24
2022-12-03T12:35:19.719Z,0.26
2022-12-03T12:37:59.006Z,0.28
2022-12-03T12:40:34.130Z,0.30
2022-12-03T12:43:13.542Z,0.30
2022-12-03T12:45:47.712Z,0.31
2022-12-03T12:48:24.163Z,0.32
2022-12-03T12:51:02.395Z,0.34
2022-12-03T12:53:35.876Z,0.36
2022-12-03T12:56:15.686Z,0.37
2022-12-03T12:58:47.379Z,0.38
2022-12-03T13:01:23.572Z,0.40
2022-12-03T13:03:55.841Z,0.42
2022-12-03T13:06:29.915Z,0.44
2022-12-03T13:09:02.075Z,0.47
2022-12-03T13:11:41.445Z,0.48
2022-12-03T13:14:16.478Z,0.50
2022-12-03T13:16:48.995Z,0.50
2022-12-03T13:19:25.018Z,0.52
2022-12-03T13:21:57.850Z,0.53
2022-12-03T13:24:38.794Z,0.53
2022-12-03T13:27:26.975Z,0.53
2022-12-03T13:30:00.450Z,0.52
2022-12-03T13:32:34.670Z,0.52
2022-12-03T13:35:08.702Z,0.53
2022-12-03T13:37:41.081Z,0.52
2022-12-03T13:40:21.962Z,0.52
2022-12-03T13:42:54.412Z,0.52
2022-12-03T13:45:35.606Z,0.53
2022-12-03T13:48:19.238Z,0.54
2022-12-03T13:50:51.617Z,0.55
2022-12-03T13:53:26.114Z,0.56
2022-12-03T13:56:01.665Z,0.57
2022-12-03T13:58:34.913Z,0.55
2022-12-03T14:01:06.718Z,0.54
2022-12-03T14:03:38.380Z,0.54
2022-12-03T14:06:10.273Z,0.54
2022-12-03T14:08:41.908Z,0.53
2022-12-03T14:11:34.270Z,0.54
2022-12-03T14:14:05.831Z,0.54
2022-12-03T14:16:37.689Z,0.54
2022-12-03T14:19:09.617Z,0.53
2022-12-03T14:21:41.630Z,0.53
2022-12-03T14:24:13.397Z,0.53
2022-12-03T14:26:45.032Z,0.52
2022-12-03T14:29:16.778Z,0.51
2022-12-03T14:31:48.493Z,0.51
2022-12-03T14:34:20.419Z,0.52
2022-12-03T14:36:52.198Z,0.52
2022-12-03T14:39:23.930Z,0.52
2022-12-03T14:42:13.232Z,0.53
2022-12-03T14:44:46.747Z,0.51
2022-12-03T14:47:20.293Z,0.51
2022-12-03T14:49:53.180Z,0.49
2022-12-03T14:52:25.119Z,0.49
2022-12-03T14:54:56.807Z,0.49
2022-12-03T14:57:28.975Z,0.48
2022-12-03T15:00:00.699Z,0.47
2022-12-03T15:02:32.474Z,0.45
2022-12-03T15:05:04.838Z,0.44
2022-12-03T15:07:38.761Z,0.44
2022-12-03T15:10:11.707Z,0.43
2022-12-03T15:12:43.413Z,0.44
2022-12-03T15:15:15.103Z,0.44
2022-12-03T15:17:47.461Z,0.44
2022-12-03T15:20:19.567Z,0.44
2022-12-03T15:22:51.109Z,0.45
2022-12-03T15:25:25.615Z,0.44
2022-12-03T15:27:57.363Z,0.45
2022-12-03T15:30:29.250Z,0.45
2022-12-03T15:33:00.995Z,0.44
2022-12-03T15:35:32.792Z,0.44
2022-12-03T15:38:04.552Z,0.44
2022-12-03T15:40:38.339Z,0.44
2022-12-03T15:43:10.507Z,0.43
2022-12-03T15:45:42.364Z,0.43
2022-12-03T15:48:14.657Z,0.44
2022-12-03T15:50:46.283Z,0.43
2022-12-03T15:53:18.098Z,0.43
2022-12-03T15:55:49.756Z,0.43
2022-12-03T15:58:21.303Z,0.43
2022-12-03T16:00:53.114Z,0.43
2022-12-03T16:03:25.095Z,0.44
2022-12-03T16:05:56.767Z,0.44
2022-12-03T16:08:28.404Z,0.45
2022-12-03T16:11:00.351Z,0.46
2022-12-03T16:13:32.108Z,0.46
2022-12-03T16:16:04.051Z,0.47
2022-12-03T16:18:36.058Z,0.47
2022-12-03T16:21:07.751Z,0.47
2022-12-03T16:23:39.401Z,0.47
2022-12-03T16:26:11.075Z,0.48
2022-12-03T16:28:42.657Z,0.49
2022-12-03T16:31:14.328Z,0.49
2022-12-03T16:33:46.216Z,0.48
2022-12-03T16:36:18.333Z,0.45
2022-12-03T16:38:49.922Z,0.44
2022-12-03T16:41:22.463Z,0.43
2022-12-03T16:43:54.424Z,0.42
2022-12-03T16:46:26.852Z,0.41
2022-12-03T16:48:59.485Z,0.39
2022-12-03T16:51:31.300Z,0.38
2022-12-03T16:54:03.152Z,0.37
2022-12-03T16:56:35.019Z,0.37
2022-12-03T16:59:06.712Z,0.36
2022-12-03T17:01:38.420Z,0.36
2022-12-03T17:04:10.395Z,0.36
2022-12-03T17:06:41.979Z,0.36
2022-12-03T17:09:13.825Z,0.36
2022-12-03T17:11:45.640Z,0.36
2022-12-03T17:14:17.221Z,0.37
2022-12-03T17:16:48.931Z,0.38
2022-12-03T17:19:20.729Z,0.38
2022-12-03T17:21:54.173Z,0.39
2022-12-03T17:24:25.790Z,0.40
2022-12-03T17:26:57.339Z,0.42
2022-12-03T17:29:29.068Z,0.42
2022-12-03T17:32:00.965Z,0.43
2022-12-03T17:34:32.806Z,0.43
2022-12-03T17:37:04.518Z,0.43
2022-12-03T17:39:36.226Z,0.42
2022-12-03T17:42:08.056Z,0.43
2022-12-03T17:44:39.600Z,0.42
2022-12-03T17:47:11.344Z,0.42
2022-12-03T17:49:43.235Z,0.41
2022-12-03T17:52:15.202Z,0.41
2022-12-03T17:55:10.036Z,0.42
2022-12-03T17:57:38.632Z,0.42
2022-12-03T18:00:12.697Z,0.42
2022-12-03T18:02:44.622Z,0.42
2022-12-03T18:05:16.523Z,0.43
2022-12-03T18:07:48.417Z,0.42
2022-12-03T18:10:20.452Z,0.42
2022-12-03T18:12:53.979Z,0.42
2022-12-03T18:15:28.832Z,0.42
2022-12-03T18:18:00.390Z,0.41
2022-12-03T18:20:32.169Z,0.42
2022-12-03T18:23:04.150Z,0.42
2022-12-03T18:25:35.838Z,0.43
2022-12-03T18:28:07.633Z,0.43
2022-12-03T18:30:39.377Z,0.43
2022-12-03T18:33:11.458Z,0.44
2022-12-03T18:35:43.307Z,0.43
2022-12-03T18:38:15.720Z,0.43
2022-12-03T18:40:48.046Z,0.44
2022-12-03T18:43:19.833Z,0.45
2022-12-03T18:45:51.625Z,0.45
2022-12-03T18:48:23.400Z,0.45
2022-12-03T18:50:56.530Z,0.46
2022-12-03T18:53:28.206Z,0.45
2022-12-03T18:55:59.923Z,0.45
2022-12-03T18:58:32.141Z,0.45
2022-12-03T19:01:04.003Z,0.45
2022-12-03T19:03:36.428Z,0.44
2022-12-03T19:06:14.072Z,0.44
2022-12-03T19:08:51.770Z,0.45
2022-12-03T19:11:23.960Z,0.45
2022-12-03T19:13:57.527Z,0.47
2022-12-03T19:16:29.272Z,0.48
2022-12-03T19:19:01.140Z,0.49
2022-12-03T19:21:33.959Z,0.49
2022-12-03T19:26:58.943Z,0.51
2022-12-03T19:29:30.918Z,0.51
2022-12-03T19:32:02.873Z,0.52
2022-12-03T19:34:34.943Z,0.54
2022-12-03T19:37:06.517Z,0.56
2022-12-03T19:39:38.559Z,0.58
2022-12-03T19:42:10.235Z,0.58
2022-12-03T19:44:42.210Z,0.59
2022-12-03T19:47:14.249Z,0.59
2022-12-03T19:49:45.959Z,0.60
2022-12-03T19:52:17.604Z,0.61
2022-12-03T19:54:49.380Z,0.61
2022-12-03T19:57:23.461Z,0.63
2022-12-03T19:59:56.036Z,0.63
2022-12-03T20:02:28.211Z,0.64
2022-12-03T20:05:00.415Z,0.64
2022-12-03T20:07:32.964Z,0.64
2022-12-03T20:10:05.598Z,0.64
2022-12-03T20:12:37.528Z,0.65
2022-12-03T20:15:11.081Z,0.66
2022-12-03T20:17:42.920Z,0.66
2022-12-03T20:20:15.448Z,0.66
2022-12-03T20:22:47.297Z,0.66
2022-12-03T20:25:19.247Z,0.66
2022-12-03T20:27:50.904Z,0.65
2022-12-03T20:30:22.974Z,0.65
2022-12-03T20:32:54.571Z,0.66
2022-12-03T20:35:26.879Z,0.67
2022-12-03T20:37:58.463Z,0.67
2022-12-03T20:40:30.251Z,0.68
2022-12-03T20:43:01.881Z,0.68
2022-12-03T20:45:33.777Z,0.66
2022-12-03T20:48:05.731Z,0.63
2022-12-03T20:50:37.376Z,0.62
2022-12-03T20:53:24.222Z,0.61
2022-12-03T20:55:59.727Z,0.61
2022-12-03T20:58:31.604Z,0.62
2022-12-03T21:01:15.687Z,0.63
2022-12-03T21:03:48.819Z,0.61
2022-12-03T21:06:21.260Z,0.62
2022-12-03T21:08:55.015Z,0.62
2022-12-03T21:11:29.650Z,0.62
2022-12-03T21:14:01.859Z,0.61
2022-12-03T21:19:28.012Z,0.59
2022-12-03T21:21:59.778Z,0.58
2022-12-03T21:24:31.446Z,0.59
2022-12-03T21:27:03.203Z,0.59
2022-12-03T21:29:34.877Z,0.59
2022-12-03T21:32:07.016Z,0.60
2022-12-03T21:34:38.830Z,0.59
2022-12-03T21:37:10.660Z,0.58
2022-12-03T21:39:42.467Z,0.57
2022-12-03T21:42:18.630Z,0.56
2022-12-03T21:45:08.198Z,0.55
2022-12-03T21:47:38.848Z,0.55
2022-12-03T21:50:12.260Z,0.55
2022-12-03T21:52:44.249Z,0.52
2022-12-03T21:55:15.937Z,0.51
2022-12-03T21:57:47.604Z,0.52
2022-12-03T22:00:20.111Z,0.52
2022-12-03T22:02:52.459Z,0.52
2022-12-03T22:05:24.465Z,0.53
2022-12-03T22:07:56.713Z,0.52
2022-12-03T22:10:28.548Z,0.53
2022-12-03T22:13:00.291Z,0.53
2022-12-03T22:15:32.349Z,0.53
2022-12-03T22:18:04.892Z,0.53
2022-12-03T22:20:36.568Z,0.52
2022-12-03T22:23:08.479Z,0.50
2022-12-03T22:25:40.124Z,0.50
2022-12-03T22:28:11.891Z,0.49
2022-12-03T22:30:43.521Z,0.48
2022-12-03T22:33:15.422Z,0.48
2022-12-03T22:35:56.939Z,0.48
2022-12-03T22:38:29.596Z,0.47
2022-12-03T22:41:01.678Z,0.45
2022-12-03T22:43:33.415Z,0.44
2022-12-03T22:46:05.369Z,0.43
2022-12-03T22:48:37.510Z,0.42
2022-12-03T22:51:14.189Z,0.41
2022-12-03T22:53:45.857Z,0.40
2022-12-03T22:56:17.571Z,0.38
2022-12-03T22:58:49.520Z,0.38
2022-12-03T23:01:25.573Z,0.37
2022-12-03T23:03:57.719Z,0.36
2022-12-03T23:06:30.464Z,0.35
2022-12-03T23:09:02.254Z,0.32
2022-12-03T23:11:33.828Z,0.31
2022-12-03T23:14:05.945Z,0.31
2022-12-03T23:16:37.625Z,0.30
2022-12-03T23:19:09.737Z,0.29
2022-12-03T23:21:41.821Z,0.29
2022-12-03T23:24:13.794Z,0.30
2022-12-03T23:26:45.775Z,0.32
2022-12-03T23:29:18.070Z,0.31
2022-12-03T23:31:49.791Z,0.31
2022-12-03T23:34:21.686Z,0.31
2022-12-03T23:36:53.451Z,0.32
2022-12-03T23:39:25.384Z,0.31
2022-12-03T23:41:57.275Z,0.30
2022-12-03T23:44:30.169Z,0.30
2022-12-03T23:47:02.373Z,0.30
2022-12-03T23:49:34.470Z,0.29
2022-12-03T23:52:06.219Z,0.29
2022-12-03T23:54:39.210Z,0.29
2022-12-03T23:57:10.872Z,0.30
2022-12-03T23:59:43.629Z,0.31
